sensor_id;sensor_type;location;lat;lon;timestamp;P1;durP1;ratioP1;P2;durP2;ratioP2
64609;SDS011;51019;46.090;6.350;2022-11-20T00:01:04;20.98;;;8.77;;
64609;SDS011;51019;46.090;6.350;2022-11-20T00:03:32;18.45;;;8.52;;
64609;SDS011;51019;46.090;6.350;2022-11-20T00:06:01;20.77;;;9.00;;
64609;SDS011;51019;46.090;6.350;2022-11-20T00:08:29;24.85;;;10.75;;
64609;SDS011;51019;46.090;6.350;2022-11-20T00:10:56;23.33;;;9.38;;
64609;SDS011;51019;46.090;6.350;2022-11-20T00:13:26;20.77;;;9.10;;
64609;SDS011;51019;46.090;6.350;2022-11-20T00:15:56;22.60;;;9.80;;
64609;SDS011;51019;46.090;6.350;2022-11-20T00:18:26;20.98;;;8.57;;
64609;SDS011;51019;46.090;6.350;2022-11-20T00:20:54;21.40;;;9.13;;
64609;SDS011;51019;46.090;6.350;2022-11-20T00:23:28;19.63;;;8.25;;
64609;SDS011;51019;46.090;6.350;2022-11-20T00:26:00;20.50;;;8.38;;
64609;SDS011;51019;46.090;6.350;2022-11-20T00:28:30;19.67;;;7.35;;
64609;SDS011;51019;46.090;6.350;2022-11-20T00:31:01;20.17;;;7.68;;
64609;SDS011;51019;46.090;6.350;2022-11-20T00:33:29;19.27;;;7.68;;
64609;SDS011;51019;46.090;6.350;2022-11-20T00:36:01;17.27;;;6.60;;
64609;SDS011;51019;46.090;6.350;2022-11-20T00:38:29;19.05;;;7.25;;
64609;SDS011;51019;46.090;6.350;2022-11-20T00:40:59;21.40;;;7.68;;
64609;SDS011;51019;46.090;6.350;2022-11-20T00:43:31;15.57;;;6.50;;
64609;SDS011;51019;46.090;6.350;2022-11-20T00:45:59;22.38;;;8.18;;
64609;SDS011;51019;46.090;6.350;2022-11-20T00:48:30;18.52;;;7.95;;
64609;SDS011;51019;46.090;6.350;2022-11-20T00:50:59;16.33;;;6.97;;
64609;SDS011;51019;46.090;6.350;2022-11-20T00:53:27;18.67;;;7.18;;
64609;SDS011;51019;46.090;6.350;2022-11-20T00:55:54;18.10;;;6.70;;
64609;SDS011;51019;46.090;6.350;2022-11-20T00:58:23;20.85;;;7.35;;
64609;SDS011;51019;46.090;6.350;2022-11-20T01:00:53;18.52;;;7.35;;
64609;SDS011;51019;46.090;6.350;2022-11-20T01:03:28;18.00;;;6.78;;
64609;SDS011;51019;46.090;6.350;2022-11-20T01:05:59;19.45;;;7.70;;
64609;SDS011;51019;46.090;6.350;2022-11-20T01:08:29;15.82;;;6.93;;
64609;SDS011;51019;46.090;6.350;2022-11-20T01:10:58;20.52;;;7.53;;
64609;SDS011;51019;46.090;6.350;2022-11-20T01:13:27;17.63;;;7.35;;
64609;SDS011;51019;46.090;6.350;2022-11-20T01:16:07;16.55;;;6.60;;
64609;SDS011;51019;46.090;6.350;2022-11-20T01:18:40;15.00;;;6.28;;
64609;SDS011;51019;46.090;6.350;2022-11-20T01:21:12;17.83;;;6.65;;
64609;SDS011;51019;46.090;6.350;2022-11-20T01:23:42;15.70;;;6.28;;
64609;SDS011;51019;46.090;6.350;2022-11-20T01:26:11;18.67;;;6.88;;
64609;SDS011;51019;46.090;6.350;2022-11-20T01:28:40;16.45;;;6.47;;
64609;SDS011;51019;46.090;6.350;2022-11-20T01:31:14;20.10;;;7.15;;
64609;SDS011;51019;46.090;6.350;2022-11-20T01:33:43;18.88;;;7.10;;
64609;SDS011;51019;46.090;6.350;2022-11-20T01:36:12;16.77;;;7.10;;
64609;SDS011;51019;46.090;6.350;2022-11-20T01:38:41;16.42;;;6.93;;
64609;SDS011;51019;46.090;6.350;2022-11-20T01:41:10;16.70;;;6.35;;
64609;SDS011;51019;46.090;6.350;2022-11-20T01:43:59;16.23;;;6.47;;
64609;SDS011;51019;46.090;6.350;2022-11-20T01:46:27;15.75;;;6.65;;
64609;SDS011;51019;46.090;6.350;2022-11-20T01:48:57;16.73;;;5.78;;
64609;SDS011;51019;46.090;6.350;2022-11-20T01:51:29;18.25;;;7.30;;
64609;SDS011;51019;46.090;6.350;2022-11-20T01:54:03;15.75;;;6.22;;
64609;SDS011;51019;46.090;6.350;2022-11-20T01:56:36;19.85;;;6.82;;
64609;SDS011;51019;46.090;6.350;2022-11-20T01:59:10;16.42;;;6.47;;
64609;SDS011;51019;46.090;6.350;2022-11-20T02:01:44;15.80;;;6.75;;
64609;SDS011;51019;46.090;6.350;2022-11-20T02:04:13;19.20;;;6.85;;
64609;SDS011;51019;46.090;6.350;2022-11-20T02:06:42;15.75;;;6.18;;
64609;SDS011;51019;46.090;6.350;2022-11-20T02:09:14;16.52;;;5.80;;
64609;SDS011;51019;46.090;6.350;2022-11-20T02:11:42;17.20;;;5.93;;
64609;SDS011;51019;46.090;6.350;2022-11-20T02:14:10;17.52;;;6.32;;
64609;SDS011;51019;46.090;6.350;2022-11-20T02:16:36;15.95;;;6.32;;
64609;SDS011;51019;46.090;6.350;2022-11-20T02:19:09;17.52;;;6.30;;
64609;SDS011;51019;46.090;6.350;2022-11-20T02:21:49;16.58;;;6.70;;
64609;SDS011;51019;46.090;6.350;2022-11-20T02:24:24;17.42;;;6.28;;
64609;SDS011;51019;46.090;6.350;2022-11-20T02:26:53;16.65;;;5.70;;
64609;SDS011;51019;46.090;6.350;2022-11-20T02:29:24;18.52;;;6.50;;
64609;SDS011;51019;46.090;6.350;2022-11-20T02:31:54;14.77;;;6.55;;
64609;SDS011;51019;46.090;6.350;2022-11-20T02:34:24;14.93;;;5.53;;
64609;SDS011;51019;46.090;6.350;2022-11-20T02:36:54;16.38;;;6.53;;
64609;SDS011;51019;46.090;6.350;2022-11-20T02:39:24;18.50;;;6.32;;
64609;SDS011;51019;46.090;6.350;2022-11-20T02:41:54;22.92;;;7.25;;
64609;SDS011;51019;46.090;6.350;2022-11-20T02:44:25;16.73;;;5.93;;
64609;SDS011;51019;46.090;6.350;2022-11-20T02:46:56;16.33;;;6.60;;
64609;SDS011;51019;46.090;6.350;2022-11-20T02:49:25;19.48;;;6.22;;
64609;SDS011;51019;46.090;6.350;2022-11-20T02:51:55;19.42;;;7.22;;
64609;SDS011;51019;46.090;6.350;2022-11-20T02:54:24;15.63;;;5.90;;
64609;SDS011;51019;46.090;6.350;2022-11-20T02:56:52;15.68;;;6.45;;
64609;SDS011;51019;46.090;6.350;2022-11-20T02:59:21;14.63;;;5.93;;
64609;SDS011;51019;46.090;6.350;2022-11-20T03:01:48;16.92;;;6.40;;
64609;SDS011;51019;46.090;6.350;2022-11-20T03:04:16;16.98;;;7.15;;
64609;SDS011;51019;46.090;6.350;2022-11-20T03:06:44;20.10;;;7.60;;
64609;SDS011;51019;46.090;6.350;2022-11-20T03:09:12;17.13;;;6.95;;
64609;SDS011;51019;46.090;6.350;2022-11-20T03:11:42;19.30;;;6.07;;
64609;SDS011;51019;46.090;6.350;2022-11-20T03:14:11;22.23;;;6.70;;
64609;SDS011;51019;46.090;6.350;2022-11-20T03:16:39;16.88;;;6.18;;
64609;SDS011;51019;46.090;6.350;2022-11-20T03:19:07;17.25;;;6.07;;
64609;SDS011;51019;46.090;6.350;2022-11-20T03:21:36;17.35;;;6.32;;
64609;SDS011;51019;46.090;6.350;2022-11-20T03:24:04;15.90;;;5.80;;
64609;SDS011;51019;46.090;6.350;2022-11-20T03:26:33;15.82;;;6.20;;
64609;SDS011;51019;46.090;6.350;2022-11-20T03:29:03;17.70;;;6.00;;
64609;SDS011;51019;46.090;6.350;2022-11-20T03:31:32;15.07;;;6.22;;
64609;SDS011;51019;46.090;6.350;2022-11-20T03:34:01;16.90;;;6.22;;
64609;SDS011;51019;46.090;6.350;2022-11-20T03:36:30;17.67;;;6.82;;
64609;SDS011;51019;46.090;6.350;2022-11-20T03:39:00;21.42;;;7.60;;
64609;SDS011;51019;46.090;6.350;2022-11-20T03:41:28;22.05;;;8.20;;
64609;SDS011;51019;46.090;6.350;2022-11-20T03:43:57;21.48;;;8.80;;
64609;SDS011;51019;46.090;6.350;2022-11-20T03:46:30;21.52;;;7.55;;
64609;SDS011;51019;46.090;6.350;2022-11-20T03:48:58;24.40;;;8.07;;
64609;SDS011;51019;46.090;6.350;2022-11-20T03:51:26;18.83;;;7.35;;
64609;SDS011;51019;46.090;6.350;2022-11-20T03:53:56;18.42;;;7.22;;
64609;SDS011;51019;46.090;6.350;2022-11-20T03:56:26;17.88;;;7.47;;
64609;SDS011;51019;46.090;6.350;2022-11-20T03:58:54;19.48;;;7.82;;
64609;SDS011;51019;46.090;6.350;2022-11-20T04:01:23;22.27;;;7.85;;
64609;SDS011;51019;46.090;6.350;2022-11-20T04:03:54;18.90;;;7.72;;
64609;SDS011;51019;46.090;6.350;2022-11-20T04:06:23;18.30;;;7.80;;
64609;SDS011;51019;46.090;6.350;2022-11-20T04:08:53;21.58;;;8.65;;
64609;SDS011;51019;46.090;6.350;2022-11-20T04:11:22;23.73;;;7.95;;
64609;SDS011;51019;46.090;6.350;2022-11-20T04:13:51;21.95;;;8.30;;
64609;SDS011;51019;46.090;6.350;2022-11-20T04:16:20;19.05;;;7.80;;
64609;SDS011;51019;46.090;6.350;2022-11-20T04:18:53;22.33;;;7.43;;
64609;SDS011;51019;46.090;6.350;2022-11-20T04:21:24;18.60;;;6.80;;
64609;SDS011;51019;46.090;6.350;2022-11-20T04:23:52;16.73;;;6.60;;
64609;SDS011;51019;46.090;6.350;2022-11-20T04:26:21;19.42;;;6.15;;
64609;SDS011;51019;46.090;6.350;2022-11-20T04:28:50;21.38;;;7.55;;
64609;SDS011;51019;46.090;6.350;2022-11-20T04:31:19;18.55;;;6.80;;
64609;SDS011;51019;46.090;6.350;2022-11-20T04:33:48;17.77;;;6.35;;
64609;SDS011;51019;46.090;6.350;2022-11-20T04:36:18;21.45;;;6.70;;
64609;SDS011;51019;46.090;6.350;2022-11-20T04:38:50;16.77;;;6.55;;
64609;SDS011;51019;46.090;6.350;2022-11-20T04:41:19;18.05;;;6.60;;
64609;SDS011;51019;46.090;6.350;2022-11-20T04:43:48;15.38;;;6.30;;
64609;SDS011;51019;46.090;6.350;2022-11-20T04:46:17;18.48;;;6.38;;
64609;SDS011;51019;46.090;6.350;2022-11-20T04:48:46;14.57;;;6.28;;
64609;SDS011;51019;46.090;6.350;2022-11-20T04:51:14;17.65;;;6.80;;
64609;SDS011;51019;46.090;6.350;2022-11-20T04:53:46;18.05;;;7.15;;
64609;SDS011;51019;46.090;6.350;2022-11-20T04:56:14;15.63;;;6.20;;
64609;SDS011;51019;46.090;6.350;2022-11-20T04:58:42;17.65;;;6.65;;
64609;SDS011;51019;46.090;6.350;2022-11-20T05:01:11;17.65;;;5.82;;
64609;SDS011;51019;46.090;6.350;2022-11-20T05:03:41;18.20;;;6.47;;
64609;SDS011;51019;46.090;6.350;2022-11-20T05:06:11;18.42;;;6.22;;
64609;SDS011;51019;46.090;6.350;2022-11-20T05:08:45;16.10;;;6.30;;
64609;SDS011;51019;46.090;6.350;2022-11-20T05:11:15;16.20;;;7.22;;
64609;SDS011;51019;46.090;6.350;2022-11-20T05:13:44;16.85;;;6.63;;
64609;SDS011;51019;46.090;6.350;2022-11-20T05:16:12;15.65;;;6.45;;
64609;SDS011;51019;46.090;6.350;2022-11-20T05:18:42;14.15;;;6.20;;
64609;SDS011;51019;46.090;6.350;2022-11-20T05:21:10;17.60;;;6.07;;
64609;SDS011;51019;46.090;6.350;2022-11-20T05:23:39;14.80;;;6.07;;
64609;SDS011;51019;46.090;6.350;2022-11-20T05:26:11;19.85;;;6.88;;
64609;SDS011;51019;46.090;6.350;2022-11-20T05:28:40;17.63;;;6.55;;
64609;SDS011;51019;46.090;6.350;2022-11-20T05:31:10;16.23;;;6.50;;
64609;SDS011;51019;46.090;6.350;2022-11-20T05:33:39;15.23;;;6.60;;
64609;SDS011;51019;46.090;6.350;2022-11-20T05:36:08;16.73;;;6.75;;
64609;SDS011;51019;46.090;6.350;2022-11-20T05:38:39;18.23;;;6.72;;
64609;SDS011;51019;46.090;6.350;2022-11-20T05:41:10;14.48;;;5.95;;
64609;SDS011;51019;46.090;6.350;2022-11-20T05:43:40;17.85;;;6.47;;
64609;SDS011;51019;46.090;6.350;2022-11-20T05:46:10;16.83;;;6.28;;
64609;SDS011;51019;46.090;6.350;2022-11-20T05:48:40;14.95;;;6.68;;
64609;SDS011;51019;46.090;6.350;2022-11-20T05:51:09;25.42;;;11.82;;
64609;SDS011;51019;46.090;6.350;2022-11-20T05:53:39;19.52;;;7.80;;
64609;SDS011;51019;46.090;6.350;2022-11-20T05:56:11;18.52;;;7.30;;
64609;SDS011;51019;46.090;6.350;2022-11-20T05:58:41;17.60;;;8.02;;
64609;SDS011;51019;46.090;6.350;2022-11-20T06:01:09;23.02;;;11.60;;
64609;SDS011;51019;46.090;6.350;2022-11-20T06:03:40;21.88;;;11.65;;
64609;SDS011;51019;46.090;6.350;2022-11-20T06:06:11;17.70;;;8.25;;
64609;SDS011;51019;46.090;6.350;2022-11-20T06:08:39;16.63;;;6.15;;
64609;SDS011;51019;46.090;6.350;2022-11-20T06:11:08;16.00;;;6.97;;
64609;SDS011;51019;46.090;6.350;2022-11-20T06:13:39;19.27;;;7.78;;
64609;SDS011;51019;46.090;6.350;2022-11-20T06:16:08;17.23;;;7.82;;
64609;SDS011;51019;46.090;6.350;2022-11-20T06:18:37;19.75;;;7.00;;
64609;SDS011;51019;46.090;6.350;2022-11-20T06:21:06;17.13;;;6.50;;
64609;SDS011;51019;46.090;6.350;2022-11-20T06:23:35;17.25;;;6.68;;
64609;SDS011;51019;46.090;6.350;2022-11-20T06:26:02;18.75;;;7.13;;
64609;SDS011;51019;46.090;6.350;2022-11-20T06:28:31;18.65;;;7.00;;
64609;SDS011;51019;46.090;6.350;2022-11-20T06:31:01;16.17;;;5.93;;
64609;SDS011;51019;46.090;6.350;2022-11-20T06:33:30;16.48;;;6.38;;
64609;SDS011;51019;46.090;6.350;2022-11-20T06:35:58;16.90;;;6.18;;
64609;SDS011;51019;46.090;6.350;2022-11-20T06:38:27;18.85;;;7.47;;
64609;SDS011;51019;46.090;6.350;2022-11-20T06:40:56;15.60;;;6.65;;
64609;SDS011;51019;46.090;6.350;2022-11-20T06:43:24;15.30;;;5.68;;
64609;SDS011;51019;46.090;6.350;2022-11-20T06:45:56;16.23;;;5.88;;
64609;SDS011;51019;46.090;6.350;2022-11-20T06:48:27;18.13;;;6.30;;
64609;SDS011;51019;46.090;6.350;2022-11-20T06:50:55;20.92;;;6.90;;
64609;SDS011;51019;46.090;6.350;2022-11-20T06:53:23;16.73;;;6.53;;
64609;SDS011;51019;46.090;6.350;2022-11-20T06:55:51;15.68;;;6.13;;
64609;SDS011;51019;46.090;6.350;2022-11-20T06:58:19;18.75;;;7.82;;
64609;SDS011;51019;46.090;6.350;2022-11-20T07:00:49;17.15;;;7.28;;
64609;SDS011;51019;46.090;6.350;2022-11-20T07:03:16;17.10;;;6.47;;
64609;SDS011;51019;46.090;6.350;2022-11-20T07:05:46;16.80;;;6.25;;
64609;SDS011;51019;46.090;6.350;2022-11-20T07:08:13;16.55;;;6.55;;
64609;SDS011;51019;46.090;6.350;2022-11-20T07:10:40;16.88;;;6.85;;
64609;SDS011;51019;46.090;6.350;2022-11-20T07:13:08;25.60;;;12.93;;
64609;SDS011;51019;46.090;6.350;2022-11-20T07:15:35;17.85;;;7.25;;
64609;SDS011;51019;46.090;6.350;2022-11-20T07:18:02;18.50;;;7.25;;
64609;SDS011;51019;46.090;6.350;2022-11-20T07:20:30;16.80;;;7.25;;
64609;SDS011;51019;46.090;6.350;2022-11-20T07:22:59;19.40;;;7.35;;
64609;SDS011;51019;46.090;6.350;2022-11-20T07:25:27;18.40;;;7.20;;
64609;SDS011;51019;46.090;6.350;2022-11-20T07:27:56;18.75;;;7.72;;
64609;SDS011;51019;46.090;6.350;2022-11-20T07:30:24;18.95;;;7.88;;
64609;SDS011;51019;46.090;6.350;2022-11-20T07:32:52;18.70;;;7.22;;
64609;SDS011;51019;46.090;6.350;2022-11-20T07:35:22;16.27;;;7.30;;
64609;SDS011;51019;46.090;6.350;2022-11-20T07:37:50;21.33;;;7.63;;
64609;SDS011;51019;46.090;6.350;2022-11-20T07:40:19;18.05;;;7.47;;
64609;SDS011;51019;46.090;6.350;2022-11-20T07:42:48;18.00;;;6.95;;
64609;SDS011;51019;46.090;6.350;2022-11-20T07:45:16;19.42;;;7.63;;
64609;SDS011;51019;46.090;6.350;2022-11-20T07:47:43;16.80;;;7.05;;
64609;SDS011;51019;46.090;6.350;2022-11-20T07:50:14;16.08;;;7.30;;
64609;SDS011;51019;46.090;6.350;2022-11-20T07:52:43;17.30;;;6.88;;
64609;SDS011;51019;46.090;6.350;2022-11-20T07:55:13;22.42;;;7.53;;
64609;SDS011;51019;46.090;6.350;2022-11-20T07:57:43;17.75;;;7.55;;
64609;SDS011;51019;46.090;6.350;2022-11-20T08:00:11;17.88;;;6.68;;
64609;SDS011;51019;46.090;6.350;2022-11-20T08:02:39;19.75;;;7.75;;
64609;SDS011;51019;46.090;6.350;2022-11-20T08:05:07;18.45;;;7.43;;
64609;SDS011;51019;46.090;6.350;2022-11-20T08:07:36;22.08;;;8.88;;
64609;SDS011;51019;46.090;6.350;2022-11-20T08:10:04;26.55;;;12.23;;
64609;SDS011;51019;46.090;6.350;2022-11-20T08:12:34;29.25;;;11.98;;
64609;SDS011;51019;46.090;6.350;2022-11-20T08:15:21;18.73;;;8.02;;
64609;SDS011;51019;46.090;6.350;2022-11-20T08:17:58;17.25;;;6.55;;
64609;SDS011;51019;46.090;6.350;2022-11-20T08:20:30;18.98;;;7.43;;
64609;SDS011;51019;46.090;6.350;2022-11-20T08:22:58;15.25;;;7.53;;
64609;SDS011;51019;46.090;6.350;2022-11-20T08:25:26;18.55;;;8.35;;
64609;SDS011;51019;46.090;6.350;2022-11-20T08:27:54;16.85;;;7.15;;
64609;SDS011;51019;46.090;6.350;2022-11-20T08:30:26;17.52;;;7.07;;
64609;SDS011;51019;46.090;6.350;2022-11-20T08:32:54;17.15;;;7.30;;
64609;SDS011;51019;46.090;6.350;2022-11-20T08:35:21;16.90;;;7.10;;
64609;SDS011;51019;46.090;6.350;2022-11-20T08:37:49;16.02;;;6.68;;
64609;SDS011;51019;46.090;6.350;2022-11-20T08:40:17;23.95;;;9.05;;
64609;SDS011;51019;46.090;6.350;2022-11-20T08:42:47;13.57;;;5.68;;
64609;SDS011;51019;46.090;6.350;2022-11-20T08:45:15;16.05;;;5.80;;
64609;SDS011;51019;46.090;6.350;2022-11-20T08:47:45;13.60;;;5.85;;
64609;SDS011;51019;46.090;6.350;2022-11-20T08:50:14;15.75;;;5.57;;
64609;SDS011;51019;46.090;6.350;2022-11-20T08:52:45;13.27;;;5.28;;
64609;SDS011;51019;46.090;6.350;2022-11-20T08:55:12;15.27;;;5.50;;
64609;SDS011;51019;46.090;6.350;2022-11-20T08:57:42;13.07;;;4.65;;
64609;SDS011;51019;46.090;6.350;2022-11-20T09:00:10;13.57;;;5.68;;
64609;SDS011;51019;46.090;6.350;2022-11-20T09:02:38;15.18;;;5.05;;
64609;SDS011;51019;46.090;6.350;2022-11-20T09:05:07;13.95;;;4.90;;
64609;SDS011;51019;46.090;6.350;2022-11-20T09:07:35;13.38;;;4.75;;
64609;SDS011;51019;46.090;6.350;2022-11-20T09:10:02;12.70;;;4.30;;
64609;SDS011;51019;46.090;6.350;2022-11-20T09:12:30;12.95;;;4.47;;
64609;SDS011;51019;46.090;6.350;2022-11-20T09:14:58;11.82;;;3.83;;
64609;SDS011;51019;46.090;6.350;2022-11-20T09:17:25;12.73;;;3.60;;
64609;SDS011;51019;46.090;6.350;2022-11-20T09:19:52;13.27;;;4.22;;
64609;SDS011;51019;46.090;6.350;2022-11-20T09:22:21;9.68;;;2.90;;
64609;SDS011;51019;46.090;6.350;2022-11-20T09:24:49;11.70;;;3.28;;
64609;SDS011;51019;46.090;6.350;2022-11-20T09:27:17;11.70;;;3.03;;
64609;SDS011;51019;46.090;6.350;2022-11-20T09:29:47;11.77;;;2.95;;
64609;SDS011;51019;46.090;6.350;2022-11-20T09:32:14;11.30;;;3.10;;
64609;SDS011;51019;46.090;6.350;2022-11-20T09:34:41;10.52;;;2.70;;
64609;SDS011;51019;46.090;6.350;2022-11-20T09:37:09;9.38;;;3.00;;
64609;SDS011;51019;46.090;6.350;2022-11-20T09:39:38;11.85;;;3.20;;
64609;SDS011;51019;46.090;6.350;2022-11-20T09:42:09;11.95;;;3.03;;
64609;SDS011;51019;46.090;6.350;2022-11-20T09:45:02;10.93;;;3.20;;
64609;SDS011;51019;46.090;6.350;2022-11-20T09:47:43;9.15;;;2.50;;
64609;SDS011;51019;46.090;6.350;2022-11-20T09:50:23;11.50;;;3.15;;
64609;SDS011;51019;46.090;6.350;2022-11-20T09:53:12;9.20;;;2.60;;
64609;SDS011;51019;46.090;6.350;2022-11-20T09:55:44;8.50;;;2.40;;
64609;SDS011;51019;46.090;6.350;2022-11-20T09:58:14;9.70;;;2.80;;
64609;SDS011;51019;46.090;6.350;2022-11-20T10:00:49;8.90;;;2.42;;
64609;SDS011;51019;46.090;6.350;2022-11-20T10:03:22;7.00;;;2.30;;
64609;SDS011;51019;46.090;6.350;2022-11-20T10:06:03;8.00;;;2.22;;
64609;SDS011;51019;46.090;6.350;2022-11-20T10:08:39;7.78;;;2.38;;
64609;SDS011;51019;46.090;6.350;2022-11-20T10:11:12;11.00;;;2.40;;
64609;SDS011;51019;46.090;6.350;2022-11-20T10:13:48;7.95;;;2.20;;
64609;SDS011;51019;46.090;6.350;2022-11-20T10:16:26;9.63;;;2.47;;
64609;SDS011;51019;46.090;6.350;2022-11-20T10:19:03;7.22;;;2.22;;
64609;SDS011;51019;46.090;6.350;2022-11-20T10:21:52;6.55;;;2.03;;
64609;SDS011;51019;46.090;6.350;2022-11-20T10:24:29;7.95;;;2.28;;
64609;SDS011;51019;46.090;6.350;2022-11-20T10:27:14;11.73;;;2.42;;
64609;SDS011;51019;46.090;6.350;2022-11-20T10:32:28;7.05;;;2.13;;
64609;SDS011;51019;46.090;6.350;2022-11-20T10:35:01;8.18;;;2.40;;
64609;SDS011;51019;46.090;6.350;2022-11-20T10:37:35;6.63;;;2.00;;
64609;SDS011;51019;46.090;6.350;2022-11-20T10:42:47;8.23;;;2.05;;
64609;SDS011;51019;46.090;6.350;2022-11-20T10:45:21;8.43;;;2.50;;
64609;SDS011;51019;46.090;6.350;2022-11-20T10:48:07;7.20;;;2.55;;
64609;SDS011;51019;46.090;6.350;2022-11-20T10:50:49;8.63;;;2.35;;
64609;SDS011;51019;46.090;6.350;2022-11-20T10:53:46;7.45;;;2.15;;
64609;SDS011;51019;46.090;6.350;2022-11-20T10:56:20;6.68;;;1.88;;
64609;SDS011;51019;46.090;6.350;2022-11-20T10:59:02;10.68;;;2.30;;
64609;SDS011;51019;46.090;6.350;2022-11-20T11:01:42;9.00;;;2.53;;
64609;SDS011;51019;46.090;6.350;2022-11-20T11:04:15;6.63;;;1.92;;
64609;SDS011;51019;46.090;6.350;2022-11-20T11:06:53;5.80;;;1.80;;
64609;SDS011;51019;46.090;6.350;2022-11-20T11:09:32;5.85;;;1.90;;
64609;SDS011;51019;46.090;6.350;2022-11-20T11:12:06;8.23;;;2.13;;
64609;SDS011;51019;46.090;6.350;2022-11-20T11:14:43;6.47;;;2.15;;
64609;SDS011;51019;46.090;6.350;2022-11-20T11:17:25;7.90;;;2.00;;
64609;SDS011;51019;46.090;6.350;2022-11-20T11:19:59;8.60;;;2.38;;
64609;SDS011;51019;46.090;6.350;2022-11-20T11:22:32;8.05;;;2.25;;
64609;SDS011;51019;46.090;6.350;2022-11-20T11:25:11;7.53;;;2.10;;
64609;SDS011;51019;46.090;6.350;2022-11-20T11:27:47;8.50;;;2.20;;
64609;SDS011;51019;46.090;6.350;2022-11-20T11:30:19;7.65;;;2.20;;
64609;SDS011;51019;46.090;6.350;2022-11-20T11:32:47;8.15;;;2.30;;
64609;SDS011;51019;46.090;6.350;2022-11-20T11:35:19;9.80;;;2.50;;
64609;SDS011;51019;46.090;6.350;2022-11-20T11:37:53;7.28;;;2.30;;
64609;SDS011;51019;46.090;6.350;2022-11-20T11:40:28;8.15;;;2.13;;
64609;SDS011;51019;46.090;6.350;2022-11-20T11:43:02;8.45;;;2.05;;
64609;SDS011;51019;46.090;6.350;2022-11-20T11:45:54;6.63;;;2.08;;
64609;SDS011;51019;46.090;6.350;2022-11-20T11:48:21;7.28;;;2.20;;
64609;SDS011;51019;46.090;6.350;2022-11-20T11:50:49;6.95;;;2.00;;
64609;SDS011;51019;46.090;6.350;2022-11-20T11:53:17;7.35;;;2.00;;
64609;SDS011;51019;46.090;6.350;2022-11-20T11:55:47;6.20;;;1.98;;
64609;SDS011;51019;46.090;6.350;2022-11-20T11:58:22;7.53;;;2.05;;
64609;SDS011;51019;46.090;6.350;2022-11-20T12:01:03;5.80;;;1.90;;
64609;SDS011;51019;46.090;6.350;2022-11-20T12:03:53;5.40;;;1.80;;
64609;SDS011;51019;46.090;6.350;2022-11-20T12:06:26;4.43;;;1.60;;
64609;SDS011;51019;46.090;6.350;2022-11-20T12:08:57;5.47;;;1.67;;
64609;SDS011;51019;46.090;6.350;2022-11-20T12:11:30;4.75;;;1.77;;
64609;SDS011;51019;46.090;6.350;2022-11-20T12:14:03;5.97;;;1.98;;
64609;SDS011;51019;46.090;6.350;2022-11-20T12:16:46;7.53;;;1.88;;
64609;SDS011;51019;46.090;6.350;2022-11-20T12:19:13;6.07;;;1.60;;
64609;SDS011;51019;46.090;6.350;2022-11-20T12:21:45;4.18;;;1.50;;
64609;SDS011;51019;46.090;6.350;2022-11-20T12:24:29;5.55;;;1.50;;
64609;SDS011;51019;46.090;6.350;2022-11-20T12:27:16;5.18;;;1.65;;
64609;SDS011;51019;46.090;6.350;2022-11-20T12:30:06;5.07;;;1.60;;
64609;SDS011;51019;46.090;6.350;2022-11-20T12:35:47;5.97;;;1.52;;
64609;SDS011;51019;46.090;6.350;2022-11-20T12:38:29;4.03;;;1.45;;
64609;SDS011;51019;46.090;6.350;2022-11-20T12:41:11;2.63;;;1.30;;
64609;SDS011;51019;46.090;6.350;2022-11-20T12:44:07;2.08;;;1.10;;
64609;SDS011;51019;46.090;6.350;2022-11-20T12:47:06;5.20;;;1.20;;
64609;SDS011;51019;46.090;6.350;2022-11-20T12:49:47;3.08;;;1.30;;
64609;SDS011;51019;46.090;6.350;2022-11-20T12:52:29;4.68;;;1.40;;
64609;SDS011;51019;46.090;6.350;2022-11-20T12:55:13;4.30;;;1.20;;
64609;SDS011;51019;46.090;6.350;2022-11-20T12:57:50;3.42;;;1.30;;
64609;SDS011;51019;46.090;6.350;2022-11-20T13:00:25;4.10;;;1.52;;
64609;SDS011;51019;46.090;6.350;2022-11-20T13:03:33;5.28;;;1.40;;
64609;SDS011;51019;46.090;6.350;2022-11-20T13:06:10;3.25;;;1.42;;
64609;SDS011;51019;46.090;6.350;2022-11-20T13:08:44;4.35;;;1.30;;
64609;SDS011;51019;46.090;6.350;2022-11-20T13:11:23;4.13;;;1.30;;
64609;SDS011;51019;46.090;6.350;2022-11-20T13:14:03;5.40;;;1.50;;
64609;SDS011;51019;46.090;6.350;2022-11-20T13:16:38;5.13;;;1.50;;
64609;SDS011;51019;46.090;6.350;2022-11-20T13:19:13;5.18;;;1.40;;
64609;SDS011;51019;46.090;6.350;2022-11-20T13:21:43;4.30;;;1.30;;
64609;SDS011;51019;46.090;6.350;2022-11-20T13:24:26;3.13;;;1.02;;
64609;SDS011;51019;46.090;6.350;2022-11-20T13:30:00;3.53;;;1.13;;
64609;SDS011;51019;46.090;6.350;2022-11-20T13:35:23;5.75;;;1.30;;
64609;SDS011;51019;46.090;6.350;2022-11-20T13:37:59;5.43;;;1.50;;
64609;SDS011;51019;46.090;6.350;2022-11-20T13:40:31;4.32;;;1.40;;
64609;SDS011;51019;46.090;6.350;2022-11-20T13:43:07;5.32;;;1.30;;
64609;SDS011;51019;46.090;6.350;2022-11-20T13:45:42;3.53;;;1.33;;
64609;SDS011;51019;46.090;6.350;2022-11-20T13:48:21;4.60;;;1.40;;
64609;SDS011;51019;46.090;6.350;2022-11-20T13:50:55;4.20;;;1.30;;
64609;SDS011;51019;46.090;6.350;2022-11-20T13:56:37;3.45;;;1.27;;
64609;SDS011;51019;46.090;6.350;2022-11-20T13:59:15;4.80;;;1.38;;
64609;SDS011;51019;46.090;6.350;2022-11-20T14:01:55;4.47;;;1.30;;
64609;SDS011;51019;46.090;6.350;2022-11-20T14:04:26;3.72;;;1.25;;
64609;SDS011;51019;46.090;6.350;2022-11-20T14:06:56;7.03;;;1.40;;
64609;SDS011;51019;46.090;6.350;2022-11-20T14:09:25;4.82;;;1.40;;
64609;SDS011;51019;46.090;6.350;2022-11-20T14:11:56;4.90;;;1.25;;
64609;SDS011;51019;46.090;6.350;2022-11-20T14:14:25;3.90;;;1.25;;
64609;SDS011;51019;46.090;6.350;2022-11-20T14:17:04;4.38;;;1.30;;
64609;SDS011;51019;46.090;6.350;2022-11-20T14:19:32;5.45;;;1.60;;
64609;SDS011;51019;46.090;6.350;2022-11-20T14:22:07;5.80;;;1.58;;
64609;SDS011;51019;46.090;6.350;2022-11-20T14:24:37;3.83;;;1.30;;
64609;SDS011;51019;46.090;6.350;2022-11-20T14:27:09;5.07;;;1.40;;
64609;SDS011;51019;46.090;6.350;2022-11-20T14:29:39;4.25;;;1.35;;
64609;SDS011;51019;46.090;6.350;2022-11-20T14:32:08;6.00;;;1.67;;
64609;SDS011;51019;46.090;6.350;2022-11-20T14:34:37;8.27;;;2.15;;
64609;SDS011;51019;46.090;6.350;2022-11-20T14:37:10;16.20;;;10.43;;
64609;SDS011;51019;46.090;6.350;2022-11-20T14:39:40;13.45;;;7.60;;
64609;SDS011;51019;46.090;6.350;2022-11-20T14:44:56;4.13;;;1.40;;
64609;SDS011;51019;46.090;6.350;2022-11-20T14:47:28;5.25;;;1.50;;
64609;SDS011;51019;46.090;6.350;2022-11-20T14:49:58;6.30;;;1.73;;
64609;SDS011;51019;46.090;6.350;2022-11-20T14:52:27;9.68;;;3.80;;
64609;SDS011;51019;46.090;6.350;2022-11-20T14:54:56;9.90;;;3.03;;
64609;SDS011;51019;46.090;6.350;2022-11-20T14:57:28;6.85;;;1.60;;
64609;SDS011;51019;46.090;6.350;2022-11-20T15:00:04;20.70;;;10.20;;
64609;SDS011;51019;46.090;6.350;2022-11-20T15:02:33;10.75;;;2.67;;
64609;SDS011;51019;46.090;6.350;2022-11-20T15:05:02;5.18;;;1.67;;
64609;SDS011;51019;46.090;6.350;2022-11-20T15:07:30;7.75;;;2.00;;
64609;SDS011;51019;46.090;6.350;2022-11-20T15:10:00;21.70;;;9.75;;
64609;SDS011;51019;46.090;6.350;2022-11-20T15:12:33;12.43;;;4.85;;
64609;SDS011;51019;46.090;6.350;2022-11-20T15:15:04;13.93;;;4.47;;
64609;SDS011;51019;46.090;6.350;2022-11-20T15:17:32;6.18;;;1.75;;
64609;SDS011;51019;46.090;6.350;2022-11-20T15:20:05;6.37;;;1.77;;
64609;SDS011;51019;46.090;6.350;2022-11-20T15:22:38;9.95;;;2.72;;
64609;SDS011;51019;46.090;6.350;2022-11-20T15:25:11;198.20;;;55.58;;